createdAt,value
2022-11-26T00:00:09.193Z,985.30
2022-11-26T00:01:09.109Z,985.30
2022-11-26T00:02:09.060Z,985.30
2022-11-26T00:03:09.111Z,985.34
2022-11-26T00:04:08.862Z,985.33
2022-11-26T00:05:08.780Z,985.34
2022-11-26T00:06:08.695Z,985.36
2022-11-26T00:07:08.658Z,985.38
2022-11-26T00:08:08.530Z,985.38
2022-11-26T00:09:08.447Z,985.36
2022-11-26T00:10:08.362Z,985.41
2022-11-26T00:11:08.280Z,985.41
2022-11-26T00:12:08.196Z,985.41
2022-11-26T00:13:08.164Z,985.41
2022-11-26T00:14:08.031Z,985.41
2022-11-26T00:15:07.946Z,985.39
2022-11-26T00:16:07.891Z,985.40
2022-11-26T00:17:07.781Z,985.43
2022-11-26T00:18:07.697Z,985.44
2022-11-26T00:19:07.621Z,985.42
2022-11-26T00:20:07.534Z,985.43
2022-11-26T00:21:07.447Z,985.42
2022-11-26T00:22:07.364Z,985.42
2022-11-26T00:23:07.282Z,985.43
2022-11-26T00:24:07.196Z,985.45
2022-11-26T00:25:07.121Z,985.49
2022-11-26T00:26:07.033Z,985.45
2022-11-26T00:27:06.950Z,985.46
2022-11-26T00:28:06.864Z,985.43
2022-11-26T00:29:06.791Z,985.43
2022-11-26T00:30:06.698Z,985.42
2022-11-26T00:31:06.619Z,985.46
2022-11-26T00:32:06.621Z,985.51
2022-11-26T00:33:06.453Z,985.47
2022-11-26T00:34:06.371Z,985.53
2022-11-26T00:35:06.292Z,985.54
2022-11-26T00:36:06.209Z,985.54
2022-11-26T00:37:06.116Z,985.53
2022-11-26T00:38:06.035Z,985.57
2022-11-26T00:39:05.961Z,985.59
2022-11-26T00:40:05.873Z,985.63
2022-11-26T00:41:05.790Z,985.64
2022-11-26T00:42:05.703Z,985.65
2022-11-26T00:43:05.630Z,985.65
2022-11-26T00:44:05.540Z,985.63
2022-11-26T00:45:05.458Z,985.64
2022-11-26T00:46:05.390Z,985.62
2022-11-26T00:47:05.298Z,985.65
2022-11-26T00:48:05.207Z,985.65
2022-11-26T00:49:05.122Z,985.70
2022-11-26T00:50:05.050Z,985.72
2022-11-26T00:51:04.958Z,985.71
2022-11-26T00:52:04.875Z,985.67
2022-11-26T00:53:04.792Z,985.65
2022-11-26T00:54:04.713Z,985.66
2022-11-26T00:55:04.639Z,985.66
2022-11-26T00:56:04.546Z,985.62
2022-11-26T00:57:04.460Z,985.69
2022-11-26T00:58:04.376Z,985.68
2022-11-26T00:59:04.300Z,985.71
2022-11-26T01:00:04.210Z,985.73
2022-11-26T01:01:04.187Z,985.76
2022-11-26T01:02:04.092Z,985.78
2022-11-26T01:03:03.982Z,985.80
2022-11-26T01:04:03.879Z,985.82
2022-11-26T01:05:03.800Z,985.85
2022-11-26T01:06:03.710Z,985.81
2022-11-26T01:07:03.636Z,985.82
2022-11-26T01:08:03.550Z,985.82
2022-11-26T01:09:03.462Z,985.84
2022-11-26T01:10:03.383Z,985.82
2022-11-26T01:11:03.295Z,985.84
2022-11-26T01:12:03.216Z,985.84
2022-11-26T01:13:03.133Z,985.88
2022-11-26T01:14:03.049Z,985.87
2022-11-26T01:15:02.965Z,985.88
2022-11-26T01:16:02.932Z,985.91
2022-11-26T01:17:02.882Z,985.93
2022-11-26T01:18:02.715Z,985.97
2022-11-26T01:19:02.635Z,985.97
2022-11-26T01:20:02.552Z,985.96
2022-11-26T01:21:02.471Z,985.95
2022-11-26T01:22:02.383Z,985.97
2022-11-26T01:23:02.300Z,986.01
2022-11-26T01:24:02.217Z,986.01
2022-11-26T01:25:02.134Z,986.00
2022-11-26T01:26:06.243Z,985.99
2022-11-26T01:27:01.976Z,986.01
2022-11-26T01:28:01.884Z,986.02
2022-11-26T01:29:01.805Z,986.04
2022-11-26T01:30:01.714Z,986.03
2022-11-26T01:31:01.638Z,986.09
2022-11-26T01:32:01.662Z,986.06
2022-11-26T01:33:01.472Z,986.08
2022-11-26T01:34:01.386Z,986.06
2022-11-26T01:35:01.302Z,986.03
2022-11-26T01:36:01.221Z,986.08
2022-11-26T01:37:01.135Z,986.08
2022-11-26T01:38:01.056Z,986.13
2022-11-26T01:39:00.968Z,986.14
2022-11-26T01:40:00.888Z,986.14
2022-11-26T01:41:00.804Z,986.14
2022-11-26T01:42:00.721Z,986.13
2022-11-26T01:43:00.642Z,986.13
2022-11-26T01:44:00.552Z,986.17
2022-11-26T01:45:00.476Z,986.19
2022-11-26T01:46:00.552Z,986.20
2022-11-26T01:47:00.302Z,986.23
2022-11-26T01:48:00.222Z,986.28
2022-11-26T01:49:00.136Z,986.29
2022-11-26T01:50:00.056Z,986.26
2022-11-26T01:50:59.977Z,986.28
2022-11-26T01:51:59.897Z,986.29
2022-11-26T01:52:59.812Z,986.33
2022-11-26T01:53:59.727Z,986.32
2022-11-26T01:54:59.659Z,986.31
2022-11-26T01:55:59.566Z,986.36
2022-11-26T01:56:59.479Z,986.35
2022-11-26T01:57:59.400Z,986.35
2022-11-26T01:58:59.314Z,986.36
2022-11-26T01:59:59.236Z,986.39
2022-11-26T02:00:59.195Z,986.40
2022-11-26T02:01:59.124Z,986.42
2022-11-26T02:02:58.985Z,986.42
2022-11-26T02:03:58.903Z,986.45
2022-11-26T02:04:58.819Z,986.46
2022-11-26T02:05:58.732Z,986.49
2022-11-26T02:06:58.651Z,986.49
2022-11-26T02:07:58.613Z,986.52
2022-11-26T02:08:58.484Z,986.52
2022-11-26T02:09:58.402Z,986.52
2022-11-26T02:10:58.318Z,986.51
2022-11-26T02:11:58.236Z,986.50
2022-11-26T02:12:58.155Z,986.48
2022-11-26T02:13:58.070Z,986.50
2022-11-26T02:14:57.991Z,986.54
2022-11-26T02:15:57.901Z,986.58
2022-11-26T02:16:57.861Z,986.58
2022-11-26T02:17:57.743Z,986.54
2022-11-26T02:18:57.654Z,986.56
2022-11-26T02:19:57.572Z,986.52
2022-11-26T02:20:57.491Z,986.51
2022-11-26T02:21:57.405Z,986.52
2022-11-26T02:22:57.329Z,986.53
2022-11-26T02:23:57.242Z,986.53
2022-11-26T02:24:57.160Z,986.52
2022-11-26T02:25:57.074Z,986.58
2022-11-26T02:26:56.997Z,986.58
2022-11-26T02:27:56.909Z,986.61
2022-11-26T02:28:56.823Z,986.64
2022-11-26T02:29:56.747Z,986.63
2022-11-26T02:30:56.661Z,986.67
2022-11-26T02:31:56.594Z,986.70
2022-11-26T02:32:56.498Z,986.73
2022-11-26T02:33:56.412Z,986.74
2022-11-26T02:34:56.332Z,986.76
2022-11-26T02:35:56.247Z,986.75
2022-11-26T02:36:56.164Z,986.79
2022-11-26T02:37:56.079Z,986.83
2022-11-26T02:38:55.998Z,986.85
2022-11-26T02:39:55.913Z,986.86
2022-11-26T02:40:55.858Z,986.83
2022-11-26T02:41:55.745Z,986.84
2022-11-26T02:42:55.669Z,986.84
2022-11-26T02:43:55.581Z,986.84
2022-11-26T02:44:55.499Z,986.81
2022-11-26T02:45:55.442Z,986.82
2022-11-26T02:46:55.333Z,986.82
2022-11-26T02:47:55.249Z,986.83
2022-11-26T02:48:55.178Z,986.81
2022-11-26T02:49:55.082Z,986.81
2022-11-26T02:50:55.005Z,986.84
2022-11-26T02:51:54.920Z,986.84
2022-11-26T02:52:54.837Z,986.84
2022-11-26T02:53:54.754Z,986.87
2022-11-26T02:54:54.677Z,986.89
2022-11-26T02:55:54.593Z,986.84
2022-11-26T02:56:54.512Z,986.87
2022-11-26T02:57:54.419Z,986.85
2022-11-26T02:58:54.343Z,986.82
2022-11-26T02:59:54.262Z,986.82
2022-11-26T03:00:54.252Z,986.84
2022-11-26T03:01:54.089Z,986.86
2022-11-26T03:02:54.009Z,986.86
2022-11-26T03:03:54.053Z,986.89
2022-11-26T03:04:53.842Z,986.85
2022-11-26T03:05:53.776Z,986.87
2022-11-26T03:06:53.684Z,986.87
2022-11-26T03:07:53.635Z,986.89
2022-11-26T03:08:53.508Z,986.85
2022-11-26T03:09:53.435Z,986.89
2022-11-26T03:10:53.348Z,986.91
2022-11-26T03:11:53.308Z,986.91
2022-11-26T03:12:53.180Z,986.91
2022-11-26T03:13:53.099Z,986.89
2022-11-26T03:14:53.010Z,986.89
2022-11-26T03:15:52.932Z,986.90
2022-11-26T03:16:52.912Z,986.90
2022-11-26T03:17:52.766Z,986.85
2022-11-26T03:18:52.688Z,986.84
2022-11-26T03:19:52.603Z,986.86
2022-11-26T03:20:52.800Z,986.87
2022-11-26T03:21:52.431Z,986.88
2022-11-26T03:22:52.360Z,986.91
2022-11-26T03:23:52.268Z,986.89
2022-11-26T03:24:52.183Z,986.92
2022-11-26T03:25:52.101Z,986.94
2022-11-26T03:26:52.020Z,986.96
2022-11-26T03:27:51.935Z,986.95
2022-11-26T03:28:51.853Z,986.94
2022-11-26T03:29:51.769Z,987.00
2022-11-26T03:30:51.687Z,986.96
2022-11-26T03:31:51.637Z,986.96
2022-11-26T03:32:51.521Z,986.99
2022-11-26T03:33:51.438Z,987.00
2022-11-26T03:34:51.358Z,986.99
2022-11-26T03:35:51.277Z,986.97
2022-11-26T03:36:51.191Z,986.98
2022-11-26T03:37:51.107Z,987.02
2022-11-26T03:38:51.024Z,987.02
2022-11-26T03:39:50.949Z,987.05
2022-11-26T03:40:50.863Z,987.05
2022-11-26T03:41:50.777Z,987.13
2022-11-26T03:42:50.695Z,987.18
2022-11-26T03:43:50.620Z,987.19
2022-11-26T03:44:50.528Z,987.22
2022-11-26T03:45:50.489Z,987.22
2022-11-26T03:46:50.361Z,987.22
2022-11-26T03:47:50.280Z,987.24
2022-11-26T03:48:50.200Z,987.21
2022-11-26T03:49:50.112Z,987.23
2022-11-26T03:50:50.054Z,987.23
2022-11-26T03:51:49.947Z,987.26
2022-11-26T03:52:49.864Z,987.29
2022-11-26T03:53:49.789Z,987.26
2022-11-26T03:54:49.700Z,987.22
2022-11-26T03:55:49.616Z,987.26
2022-11-26T03:56:49.535Z,987.28
2022-11-26T03:57:49.458Z,987.33
2022-11-26T03:58:49.369Z,987.36
2022-11-26T03:59:49.294Z,987.33
2022-11-26T04:00:49.202Z,987.36
2022-11-26T04:01:49.148Z,987.36
2022-11-26T04:02:49.095Z,987.39
2022-11-26T04:03:48.957Z,987.37
2022-11-26T04:04:48.874Z,987.35
2022-11-26T04:05:48.793Z,987.43
2022-11-26T04:06:48.707Z,987.42
2022-11-26T04:07:48.666Z,987.44
2022-11-26T04:08:48.542Z,987.45
2022-11-26T04:09:48.456Z,987.48
2022-11-26T04:10:48.381Z,987.52
2022-11-26T04:11:48.297Z,987.51
2022-11-26T04:12:48.209Z,987.54
2022-11-26T04:13:48.129Z,987.54
2022-11-26T04:14:48.045Z,987.55
2022-11-26T04:15:47.965Z,987.52
2022-11-26T04:16:47.910Z,987.53
2022-11-26T04:17:47.795Z,987.54
2022-11-26T04:18:47.715Z,987.55
2022-11-26T04:19:47.630Z,987.53
2022-11-26T04:20:51.565Z,987.54
2022-11-26T04:21:47.465Z,987.57
2022-11-26T04:22:47.384Z,987.61
2022-11-26T04:23:47.296Z,987.58
2022-11-26T04:24:47.212Z,987.59
2022-11-26T04:25:47.140Z,987.61
2022-11-26T04:26:47.052Z,987.65
2022-11-26T04:27:46.973Z,987.67
2022-11-26T04:28:46.884Z,987.68
2022-11-26T04:29:46.810Z,987.73
2022-11-26T04:30:46.717Z,987.70
2022-11-26T04:31:46.691Z,987.70
2022-11-26T04:32:46.549Z,987.70
2022-11-26T04:33:46.472Z,987.72
2022-11-26T04:34:46.389Z,987.70
2022-11-26T04:35:46.301Z,987.69
2022-11-26T04:36:46.218Z,987.66
2022-11-26T04:37:46.136Z,987.67
2022-11-26T04:38:46.054Z,987.68
2022-11-26T04:39:45.975Z,987.65
2022-11-26T04:40:45.885Z,987.69
2022-11-26T04:41:45.806Z,987.72
2022-11-26T04:42:45.728Z,987.74
2022-11-26T04:43:45.641Z,987.76
2022-11-26T04:44:45.557Z,987.78
2022-11-26T04:45:45.487Z,987.77
2022-11-26T04:46:45.388Z,987.77
2022-11-26T04:47:45.306Z,987.76
2022-11-26T04:48:45.226Z,987.77
2022-11-26T04:49:45.148Z,987.73
2022-11-26T04:50:45.059Z,987.78
2022-11-26T04:51:44.978Z,987.77
2022-11-26T04:52:44.896Z,987.78
2022-11-26T04:53:44.814Z,987.78
2022-11-26T04:54:44.726Z,987.82
2022-11-26T04:55:44.648Z,987.81
2022-11-26T04:56:44.563Z,987.81
2022-11-26T04:57:44.481Z,987.84
2022-11-26T04:58:44.397Z,987.84
2022-11-26T04:59:44.316Z,987.92
2022-11-26T05:00:46.001Z,987.97
2022-11-26T05:01:44.188Z,987.94
2022-11-26T05:02:44.164Z,987.96
2022-11-26T05:03:43.993Z,987.97
2022-11-26T05:04:43.902Z,987.97
2022-11-26T05:05:43.824Z,988.00
2022-11-26T05:06:43.734Z,987.99
2022-11-26T05:07:43.723Z,987.98
2022-11-26T05:08:43.567Z,988.02
2022-11-26T05:09:43.485Z,987.99
2022-11-26T05:10:43.406Z,988.08
2022-11-26T05:11:43.324Z,988.07
2022-11-26T05:12:43.239Z,988.04
2022-11-26T05:13:43.156Z,988.07
2022-11-26T05:14:43.070Z,988.11
2022-11-26T05:15:42.995Z,988.10
2022-11-26T05:16:42.930Z,988.09
2022-11-26T05:17:42.833Z,988.14
2022-11-26T05:18:42.745Z,988.15
2022-11-26T05:19:42.660Z,988.13
2022-11-26T05:20:42.574Z,988.14
2022-11-26T05:21:42.493Z,988.17
2022-11-26T05:22:42.410Z,988.18
2022-11-26T05:23:42.329Z,988.17
2022-11-26T05:24:42.241Z,988.21
2022-11-26T05:25:42.165Z,988.23
2022-11-26T05:26:42.081Z,988.23
2022-11-26T05:27:41.998Z,988.26
2022-11-26T05:28:41.909Z,988.26
2022-11-26T05:29:41.831Z,988.24
2022-11-26T05:30:41.749Z,988.25
2022-11-26T05:31:41.745Z,988.29
2022-11-26T05:32:41.582Z,988.29
2022-11-26T05:33:41.497Z,988.31
2022-11-26T05:34:41.700Z,988.33
2022-11-26T05:35:41.330Z,988.33
2022-11-26T05:36:41.246Z,988.34
2022-11-26T05:37:41.165Z,988.36
2022-11-26T05:38:41.092Z,988.35
2022-11-26T05:39:40.999Z,988.31
2022-11-26T05:40:40.919Z,988.33
2022-11-26T05:41:40.833Z,988.33
2022-11-26T05:42:40.760Z,988.32
2022-11-26T05:43:40.671Z,988.34
2022-11-26T05:44:40.919Z,988.32
2022-11-26T05:45:40.562Z,988.32
2022-11-26T05:46:40.417Z,988.37
2022-11-26T05:47:40.335Z,988.36
2022-11-26T05:48:40.253Z,988.38
2022-11-26T05:49:40.171Z,988.41
2022-11-26T05:50:40.088Z,988.41
2022-11-26T05:51:40.004Z,988.43
2022-11-26T05:52:39.925Z,988.40
2022-11-26T05:53:39.839Z,988.44
2022-11-26T05:54:40.078Z,988.45
2022-11-26T05:55:39.674Z,988.48
2022-11-26T05:56:39.588Z,988.44
2022-11-26T05:57:39.545Z,988.45
2022-11-26T05:58:39.424Z,988.45
2022-11-26T05:59:39.341Z,988.48
2022-11-26T06:00:39.259Z,988.45
2022-11-26T06:01:39.181Z,988.50
2022-11-26T06:02:39.247Z,988.44
2022-11-26T06:03:39.044Z,988.44
2022-11-26T06:04:39.154Z,988.44
2022-11-26T06:05:38.846Z,988.45
2022-11-26T06:06:38.762Z,988.45
2022-11-26T06:07:43.311Z,988.44
2022-11-26T06:08:38.592Z,988.48
2022-11-26T06:09:38.715Z,988.43
2022-11-26T06:10:38.427Z,988.47
2022-11-26T06:11:38.342Z,988.49
2022-11-26T06:12:38.262Z,988.49
2022-11-26T06:13:38.180Z,988.54
2022-11-26T06:14:42.802Z,988.55
2022-11-26T06:15:38.017Z,988.55
2022-11-26T06:16:37.986Z,988.55
2022-11-26T06:17:37.849Z,988.56
2022-11-26T06:18:37.761Z,988.56
2022-11-26T06:19:37.678Z,988.56
2022-11-26T06:20:37.597Z,988.56
2022-11-26T06:21:37.511Z,988.59
2022-11-26T06:22:37.429Z,988.61
2022-11-26T06:23:37.348Z,988.63
2022-11-26T06:24:37.645Z,988.61
2022-11-26T06:25:37.183Z,988.61
2022-11-26T06:26:37.095Z,988.63
2022-11-26T06:27:37.017Z,988.59
2022-11-26T06:28:36.927Z,988.64
2022-11-26T06:29:36.847Z,988.65
2022-11-26T06:30:36.761Z,988.64
2022-11-26T06:31:36.698Z,988.69
2022-11-26T06:32:36.595Z,988.68
2022-11-26T06:33:36.509Z,988.74
2022-11-26T06:34:36.802Z,988.74
2022-11-26T06:35:36.347Z,988.73
2022-11-26T06:36:36.263Z,988.71
2022-11-26T06:37:36.178Z,988.76
2022-11-26T06:38:36.095Z,988.77
2022-11-26T06:39:36.015Z,988.72
2022-11-26T06:40:35.931Z,988.74
2022-11-26T06:41:35.843Z,988.78
2022-11-26T06:42:35.756Z,988.79
2022-11-26T06:43:35.682Z,988.79
2022-11-26T06:44:35.605Z,988.82
2022-11-26T06:45:35.598Z,988.82
2022-11-26T06:46:35.428Z,988.87
2022-11-26T06:47:35.343Z,988.85
2022-11-26T06:48:35.258Z,988.88
2022-11-26T06:49:35.182Z,988.86
2022-11-26T06:50:35.093Z,988.92
2022-11-26T06:51:35.007Z,988.94
2022-11-26T06:52:34.921Z,988.96
2022-11-26T06:53:34.839Z,988.96
2022-11-26T06:54:34.854Z,989.02
2022-11-26T06:55:34.678Z,989.02
2022-11-26T06:56:34.587Z,989.01
2022-11-26T06:57:34.505Z,989.04
2022-11-26T06:58:34.423Z,989.07
2022-11-26T06:59:34.339Z,989.11
2022-11-26T07:00:34.267Z,989.14
2022-11-26T07:01:34.197Z,989.12
2022-11-26T07:02:34.146Z,989.18
2022-11-26T07:03:34.008Z,989.14
2022-11-26T07:04:33.926Z,989.13
2022-11-26T07:05:33.839Z,989.18
2022-11-26T07:06:33.756Z,989.20
2022-11-26T07:07:33.729Z,989.22
2022-11-26T07:08:33.589Z,989.19
2022-11-26T07:09:33.502Z,989.17
2022-11-26T07:10:33.420Z,989.17
2022-11-26T07:11:33.338Z,989.17
2022-11-26T07:12:33.251Z,989.19
2022-11-26T07:13:33.175Z,989.21
2022-11-26T07:14:33.086Z,989.24
2022-11-26T07:15:33.015Z,989.23
2022-11-26T07:16:32.988Z,989.24
2022-11-26T07:17:32.838Z,989.25
2022-11-26T07:18:32.753Z,989.23
2022-11-26T07:19:32.676Z,989.24
2022-11-26T07:20:32.584Z,989.23
2022-11-26T07:21:32.507Z,989.23
2022-11-26T07:22:32.486Z,989.22
2022-11-26T07:23:32.361Z,989.22
2022-11-26T07:24:32.254Z,989.22
2022-11-26T07:25:32.166Z,989.19
2022-11-26T07:26:32.098Z,989.23
2022-11-26T07:27:31.997Z,989.24
2022-11-26T07:28:31.920Z,989.28
2022-11-26T07:29:31.832Z,989.31
2022-11-26T07:30:31.755Z,989.33
2022-11-26T07:31:31.680Z,989.31
2022-11-26T07:32:31.582Z,989.34
2022-11-26T07:33:31.498Z,989.36
2022-11-26T07:34:31.414Z,989.36
2022-11-26T07:35:31.330Z,989.36
2022-11-26T07:36:31.249Z,989.41
2022-11-26T07:37:31.171Z,989.40
2022-11-26T07:38:31.079Z,989.39
2022-11-26T07:39:31.002Z,989.40
2022-11-26T07:40:30.910Z,989.40
2022-11-26T07:41:30.828Z,989.40
2022-11-26T07:42:30.749Z,989.44
2022-11-26T07:43:30.663Z,989.44
2022-11-26T07:44:30.576Z,989.46
2022-11-26T07:45:30.493Z,989.47
2022-11-26T07:46:30.477Z,989.46
2022-11-26T07:47:30.334Z,989.46
2022-11-26T07:48:30.272Z,989.46
2022-11-26T07:49:30.160Z,989.42
2022-11-26T07:50:30.101Z,989.44
2022-11-26T07:51:29.994Z,989.47
2022-11-26T07:52:29.910Z,989.46
2022-11-26T07:53:29.824Z,989.48
2022-11-26T07:54:29.744Z,989.48
2022-11-26T07:55:29.657Z,989.49
2022-11-26T07:56:29.577Z,989.53
2022-11-26T07:57:29.490Z,989.56
2022-11-26T07:58:29.413Z,989.56
2022-11-26T07:59:29.328Z,989.58
2022-11-26T08:00:29.243Z,989.56
2022-11-26T08:01:29.190Z,989.59
2022-11-26T08:02:29.166Z,989.62
2022-11-26T08:03:28.989Z,989.62
2022-11-26T08:04:28.904Z,989.66
2022-11-26T08:05:28.825Z,989.72
2022-11-26T08:06:28.738Z,989.75
2022-11-26T08:07:29.601Z,989.80
2022-11-26T08:08:28.573Z,989.78
2022-11-26T08:09:28.487Z,989.79
2022-11-26T08:10:28.408Z,989.80
2022-11-26T08:11:28.327Z,989.80
2022-11-26T08:12:28.240Z,989.76
2022-11-26T08:13:28.153Z,989.77
2022-11-26T08:14:28.081Z,989.79
2022-11-26T08:15:27.988Z,989.78
2022-11-26T08:16:29.226Z,989.83
2022-11-26T08:17:27.821Z,989.85
2022-11-26T08:18:27.744Z,989.87
2022-11-26T08:19:27.656Z,989.87
2022-11-26T08:20:29.187Z,989.89
2022-11-26T08:21:27.491Z,989.90
2022-11-26T08:22:27.411Z,989.89
2022-11-26T08:23:27.324Z,989.89
2022-11-26T08:24:27.237Z,989.87
2022-11-26T08:25:27.158Z,989.91
2022-11-26T08:26:33.928Z,989.92
2022-11-26T08:27:26.992Z,989.90
2022-11-26T08:28:26.908Z,989.94
2022-11-26T08:29:26.825Z,989.95
2022-11-26T08:30:26.819Z,989.97
2022-11-26T08:31:26.692Z,989.98
2022-11-26T08:32:26.575Z,989.96
2022-11-26T08:33:26.490Z,990.02
2022-11-26T08:34:26.408Z,990.04
2022-11-26T08:35:44.423Z,990.06
2022-11-26T08:36:26.242Z,990.05
2022-11-26T08:37:26.157Z,990.07
2022-11-26T08:38:26.080Z,990.13
2022-11-26T08:39:25.993Z,990.08
2022-11-26T08:40:25.912Z,990.06
2022-11-26T08:41:25.825Z,990.12
2022-11-26T08:42:25.745Z,990.11
2022-11-26T08:43:45.051Z,990.17
2022-11-26T08:44:25.578Z,990.18
2022-11-26T08:45:25.494Z,990.20
2022-11-26T08:46:25.465Z,990.19
2022-11-26T08:47:25.329Z,990.22
2022-11-26T08:48:27.959Z,990.19
2022-11-26T08:49:25.161Z,990.19
2022-11-26T08:50:25.123Z,990.20
2022-11-26T08:51:25.002Z,990.24
2022-11-26T08:52:24.912Z,990.25
2022-11-26T08:53:24.829Z,990.23
2022-11-26T08:54:24.750Z,990.26
2022-11-26T08:55:27.096Z,990.31
2022-11-26T08:56:24.587Z,990.25
2022-11-26T08:57:24.598Z,990.34
2022-11-26T08:58:24.419Z,990.34
2022-11-26T08:59:24.350Z,990.37
2022-11-26T09:00:24.350Z,990.39
2022-11-26T09:01:24.189Z,990.42
2022-11-26T09:02:24.089Z,990.41
2022-11-26T09:03:24.048Z,990.44
2022-11-26T09:04:23.931Z,990.42
2022-11-26T09:05:23.840Z,990.41
2022-11-26T09:06:23.755Z,990.43
2022-11-26T09:07:23.762Z,990.45
2022-11-26T09:08:23.593Z,990.43
2022-11-26T09:09:23.506Z,990.41
2022-11-26T09:10:23.472Z,990.43
2022-11-26T09:11:23.344Z,990.46
2022-11-26T09:12:23.257Z,990.48
2022-11-26T09:13:23.177Z,990.50
2022-11-26T09:14:23.091Z,990.47
2022-11-26T09:15:23.075Z,990.48
2022-11-26T09:16:22.963Z,990.44
2022-11-26T09:17:22.847Z,990.47
2022-11-26T09:18:22.766Z,990.41
2022-11-26T09:19:22.684Z,990.45
2022-11-26T09:20:22.597Z,990.44
2022-11-26T09:21:22.521Z,990.47
2022-11-26T09:22:22.435Z,990.48
2022-11-26T09:23:22.351Z,990.53
2022-11-26T09:24:22.270Z,990.54
2022-11-26T09:25:22.189Z,990.50
2022-11-26T09:26:22.103Z,990.49
2022-11-26T09:27:22.023Z,990.49
2022-11-26T09:28:21.943Z,990.53
2022-11-26T09:29:21.858Z,990.57
2022-11-26T09:30:21.780Z,990.60
2022-11-26T09:31:21.713Z,990.62
2022-11-26T09:32:26.146Z,990.61
2022-11-26T09:33:21.524Z,990.62
2022-11-26T09:34:21.453Z,990.60
2022-11-26T09:35:21.363Z,990.64
2022-11-26T09:36:21.281Z,990.67
2022-11-26T09:37:21.206Z,990.68
2022-11-26T09:38:21.128Z,990.67
2022-11-26T09:39:21.039Z,990.66
2022-11-26T09:40:20.955Z,990.65
2022-11-26T09:41:20.869Z,990.64
2022-11-26T09:42:20.788Z,990.64
2022-11-26T09:43:20.705Z,990.65
2022-11-26T09:44:20.623Z,990.66
2022-11-26T09:45:20.538Z,990.64
2022-11-26T09:46:20.483Z,990.66
2022-11-26T09:47:20.378Z,990.66
2022-11-26T09:48:20.310Z,990.63
2022-11-26T09:49:20.212Z,990.58
2022-11-26T09:50:20.140Z,990.64
2022-11-26T09:51:20.052Z,990.57
2022-11-26T09:52:19.966Z,990.56
2022-11-26T09:53:19.882Z,990.55
2022-11-26T09:54:19.804Z,990.57
2022-11-26T09:55:19.722Z,990.55
2022-11-26T09:56:19.640Z,990.53
2022-11-26T09:57:19.553Z,990.53
2022-11-26T09:58:25.312Z,990.54
2022-11-26T09:59:19.387Z,990.55
2022-11-26T10:00:19.304Z,990.54
2022-11-26T10:01:19.260Z,990.51
2022-11-26T10:02:19.178Z,990.52
2022-11-26T10:03:19.060Z,990.52
2022-11-26T10:04:18.977Z,990.52
2022-11-26T10:05:21.442Z,990.53
2022-11-26T10:06:18.820Z,990.54
2022-11-26T10:07:18.794Z,990.52
2022-11-26T10:08:18.648Z,990.52
2022-11-26T10:09:18.566Z,990.56
2022-11-26T10:10:18.487Z,990.54
2022-11-26T10:11:18.401Z,990.56
2022-11-26T10:12:25.420Z,990.53
2022-11-26T10:13:19.796Z,990.57
2022-11-26T10:14:18.159Z,990.54
2022-11-26T10:15:18.075Z,990.56
2022-11-26T10:16:18.035Z,990.57
2022-11-26T10:17:17.911Z,990.58
2022-11-26T10:18:17.832Z,990.58
2022-11-26T10:19:17.752Z,990.57
2022-11-26T10:20:17.667Z,990.57
2022-11-26T10:21:26.891Z,990.57
2022-11-26T10:22:17.501Z,990.57
2022-11-26T10:23:17.422Z,990.57
2022-11-26T10:24:17.337Z,990.59
2022-11-26T10:25:17.256Z,990.55
2022-11-26T10:26:17.173Z,990.57
2022-11-26T10:27:17.091Z,990.57
2022-11-26T10:28:17.014Z,990.60
2022-11-26T10:29:16.929Z,990.60
2022-11-26T10:30:16.846Z,990.58
2022-11-26T10:31:16.786Z,990.61
2022-11-26T10:32:16.682Z,990.58
2022-11-26T10:33:16.600Z,990.64
2022-11-26T10:34:16.515Z,990.62
2022-11-26T10:35:16.434Z,990.62
2022-11-26T10:36:16.349Z,990.68
2022-11-26T10:37:16.269Z,990.69
2022-11-26T10:38:16.194Z,990.67
2022-11-26T10:39:16.109Z,990.66
2022-11-26T10:40:16.027Z,990.66
2022-11-26T10:41:15.938Z,990.65
2022-11-26T10:42:15.862Z,990.64
2022-11-26T10:43:15.777Z,990.65
2022-11-26T10:44:15.693Z,990.65
2022-11-26T10:45:15.610Z,990.63
2022-11-26T10:46:15.561Z,990.63
2022-11-26T10:47:15.449Z,990.65
2022-11-26T10:48:15.364Z,990.60
2022-11-26T10:49:15.283Z,990.64
2022-11-26T10:50:45.366Z,990.63
2022-11-26T10:51:15.118Z,990.65
2022-11-26T10:52:15.037Z,990.64
2022-11-26T10:53:14.951Z,990.63
2022-11-26T10:54:14.885Z,990.61
2022-11-26T10:55:14.788Z,990.64
2022-11-26T10:56:14.707Z,990.61
2022-11-26T10:57:14.629Z,990.64
2022-11-26T10:58:14.553Z,990.64
2022-11-26T10:59:14.464Z,990.59
2022-11-26T11:00:14.379Z,990.63
2022-11-26T11:01:14.530Z,990.57
2022-11-26T11:02:14.232Z,990.57
2022-11-26T11:03:14.131Z,990.58
2022-11-26T11:04:14.052Z,990.56
2022-11-26T11:05:13.972Z,990.53
2022-11-26T11:06:13.889Z,990.58
2022-11-26T11:07:13.899Z,990.55
2022-11-26T11:08:13.723Z,990.60
2022-11-26T11:09:13.637Z,990.58
2022-11-26T11:10:13.559Z,990.58
2022-11-26T11:11:13.476Z,990.61
2022-11-26T11:12:13.400Z,990.57
2022-11-26T11:13:13.309Z,990.57
2022-11-26T11:14:13.229Z,990.59
2022-11-26T11:15:13.149Z,990.61
2022-11-26T11:16:13.110Z,990.55
2022-11-26T11:17:12.990Z,990.55
2022-11-26T11:18:12.904Z,990.57
2022-11-26T11:19:12.827Z,990.58
2022-11-26T11:20:12.737Z,990.56
2022-11-26T11:21:12.659Z,990.55
2022-11-26T11:22:12.576Z,990.55
2022-11-26T11:23:12.490Z,990.59
2022-11-26T11:24:12.409Z,990.60
2022-11-26T11:25:12.329Z,990.59
2022-11-26T11:26:12.253Z,990.62
2022-11-26T11:27:12.165Z,990.59
2022-11-26T11:28:12.618Z,990.60
2022-11-26T11:29:12.001Z,990.61
2022-11-26T11:30:11.918Z,990.59
2022-11-26T11:31:11.842Z,990.59
2022-11-26T11:32:11.757Z,990.63
2022-11-26T11:33:11.673Z,990.62
2022-11-26T11:34:11.589Z,990.66
2022-11-26T11:35:11.510Z,990.63
2022-11-26T11:36:11.426Z,990.62
2022-11-26T11:37:14.641Z,990.65
2022-11-26T11:38:11.265Z,990.61
2022-11-26T11:39:11.177Z,990.61
2022-11-26T11:40:15.732Z,990.59
2022-11-26T11:41:11.020Z,990.59
2022-11-26T11:42:10.940Z,990.62
2022-11-26T11:43:10.849Z,990.56
2022-11-26T11:44:10.763Z,990.59
2022-11-26T11:45:10.684Z,990.57
2022-11-26T11:46:10.626Z,990.59
2022-11-26T11:47:10.525Z,990.56
2022-11-26T11:48:10.437Z,990.54
2022-11-26T11:49:10.354Z,990.56
2022-11-26T11:50:10.276Z,990.54
2022-11-26T11:51:10.193Z,990.54
2022-11-26T11:52:10.109Z,990.57
2022-11-26T11:53:10.026Z,990.57
2022-11-26T11:54:09.943Z,990.57
2022-11-26T11:55:09.863Z,990.60
2022-11-26T11:56:09.781Z,990.61
2022-11-26T11:57:09.703Z,990.63
2022-11-26T11:58:09.620Z,990.63
2022-11-26T11:59:09.538Z,990.66
2022-11-26T12:00:09.454Z,990.64
2022-11-26T12:01:09.374Z,990.66
2022-11-26T12:02:09.392Z,990.64
2022-11-26T12:03:10.599Z,990.66
2022-11-26T12:04:10.384Z,990.67
2022-11-26T12:05:09.100Z,990.63
2022-11-26T12:06:08.962Z,990.58
2022-11-26T12:07:08.878Z,990.59
2022-11-26T12:08:08.794Z,990.59
2022-11-26T12:09:08.725Z,990.57
2022-11-26T12:10:08.631Z,990.55
2022-11-26T12:11:08.552Z,990.60
2022-11-26T12:12:08.464Z,990.61
2022-11-26T12:13:08.387Z,990.60
2022-11-26T12:14:08.306Z,990.63
2022-11-26T12:15:08.223Z,990.59
2022-11-26T12:16:08.205Z,990.58
2022-11-26T12:17:08.118Z,990.62
2022-11-26T12:18:07.975Z,990.63
2022-11-26T12:19:07.892Z,990.61
2022-11-26T12:20:07.806Z,990.65
2022-11-26T12:21:07.731Z,990.63
2022-11-26T12:22:07.649Z,990.62
2022-11-26T12:23:11.547Z,990.64
2022-11-26T12:24:07.484Z,990.62
2022-11-26T12:25:07.399Z,990.61
2022-11-26T12:26:07.317Z,990.61
2022-11-26T12:27:07.244Z,990.61